sensor_id;sensor_type;location;lat;lon;timestamp;P1;durP1;ratioP1;P2;durP2;ratioP2
32094;SDS011;18608;53.688;10.748;2022-07-23T00:01:31;1.53;;;1.43;;
32094;SDS011;18608;53.688;10.748;2022-07-23T00:03:57;4.73;;;2.07;;
32094;SDS011;18608;53.688;10.748;2022-07-23T00:06:23;3.83;;;1.80;;
32094;SDS011;18608;53.688;10.748;2022-07-23T00:08:49;3.27;;;2.10;;
32094;SDS011;18608;53.688;10.748;2022-07-23T00:11:15;5.90;;;2.17;;
32094;SDS011;18608;53.688;10.748;2022-07-23T00:13:40;8.23;;;2.13;;
32094;SDS011;18608;53.688;10.748;2022-07-23T00:16:06;4.43;;;1.77;;
32094;SDS011;18608;53.688;10.748;2022-07-23T00:18:32;4.73;;;2.07;;
32094;SDS011;18608;53.688;10.748;2022-07-23T00:20:57;5.70;;;2.13;;
32094;SDS011;18608;53.688;10.748;2022-07-23T00:23:23;2.80;;;1.53;;
32094;SDS011;18608;53.688;10.748;2022-07-23T00:25:50;4.00;;;1.90;;
32094;SDS011;18608;53.688;10.748;2022-07-23T00:28:16;11.13;;;2.03;;
32094;SDS011;18608;53.688;10.748;2022-07-23T00:30:43;2.97;;;2.03;;
32094;SDS011;18608;53.688;10.748;2022-07-23T00:33:09;5.07;;;2.13;;
32094;SDS011;18608;53.688;10.748;2022-07-23T00:35:36;4.30;;;1.50;;
32094;SDS011;18608;53.688;10.748;2022-07-23T00:38:05;8.70;;;2.27;;
32094;SDS011;18608;53.688;10.748;2022-07-23T00:40:31;1.90;;;1.70;;
32094;SDS011;18608;53.688;10.748;2022-07-23T00:42:57;3.90;;;2.03;;
32094;SDS011;18608;53.688;10.748;2022-07-23T00:45:24;2.20;;;1.67;;
32094;SDS011;18608;53.688;10.748;2022-07-23T00:47:50;4.93;;;1.77;;
32094;SDS011;18608;53.688;10.748;2022-07-23T00:50:16;5.30;;;1.73;;
32094;SDS011;18608;53.688;10.748;2022-07-23T00:52:42;3.70;;;2.13;;
32094;SDS011;18608;53.688;10.748;2022-07-23T00:55:09;3.70;;;1.33;;
32094;SDS011;18608;53.688;10.748;2022-07-23T00:57:36;2.30;;;1.90;;
32094;SDS011;18608;53.688;10.748;2022-07-23T01:00:03;4.40;;;2.27;;
32094;SDS011;18608;53.688;10.748;2022-07-23T01:02:30;6.23;;;2.37;;
32094;SDS011;18608;53.688;10.748;2022-07-23T01:04:56;1.77;;;1.67;;
32094;SDS011;18608;53.688;10.748;2022-07-23T01:07:21;5.17;;;2.30;;
32094;SDS011;18608;53.688;10.748;2022-07-23T01:09:48;3.67;;;2.40;;
32094;SDS011;18608;53.688;10.748;2022-07-23T01:12:15;2.67;;;2.07;;
32094;SDS011;18608;53.688;10.748;2022-07-23T01:14:41;4.13;;;2.10;;
32094;SDS011;18608;53.688;10.748;2022-07-23T01:17:06;2.27;;;1.97;;
32094;SDS011;18608;53.688;10.748;2022-07-23T01:19:32;2.97;;;2.20;;
32094;SDS011;18608;53.688;10.748;2022-07-23T01:21:58;3.83;;;2.20;;
32094;SDS011;18608;53.688;10.748;2022-07-23T01:24:26;1.93;;;1.83;;
32094;SDS011;18608;53.688;10.748;2022-07-23T01:26:52;4.40;;;2.50;;
32094;SDS011;18608;53.688;10.748;2022-07-23T01:29:18;2.80;;;2.03;;
32094;SDS011;18608;53.688;10.748;2022-07-23T01:31:44;2.40;;;1.87;;
32094;SDS011;18608;53.688;10.748;2022-07-23T01:34:09;5.13;;;2.60;;
32094;SDS011;18608;53.688;10.748;2022-07-23T01:36:35;3.60;;;2.13;;
32094;SDS011;18608;53.688;10.748;2022-07-23T01:39:03;4.10;;;2.27;;
32094;SDS011;18608;53.688;10.748;2022-07-23T01:41:29;4.57;;;2.43;;
32094;SDS011;18608;53.688;10.748;2022-07-23T01:43:55;4.17;;;2.07;;
32094;SDS011;18608;53.688;10.748;2022-07-23T01:46:21;3.97;;;2.60;;
32094;SDS011;18608;53.688;10.748;2022-07-23T01:48:47;2.80;;;2.30;;
32094;SDS011;18608;53.688;10.748;2022-07-23T01:51:13;10.87;;;2.70;;
32094;SDS011;18608;53.688;10.748;2022-07-23T01:53:39;3.37;;;2.90;;
32094;SDS011;18608;53.688;10.748;2022-07-23T01:56:05;6.23;;;2.77;;
32094;SDS011;18608;53.688;10.748;2022-07-23T01:58:31;3.60;;;1.97;;
32094;SDS011;18608;53.688;10.748;2022-07-23T02:00:56;4.73;;;2.60;;
32094;SDS011;18608;53.688;10.748;2022-07-23T02:03:22;2.10;;;2.00;;
32094;SDS011;18608;53.688;10.748;2022-07-23T02:05:48;12.60;;;2.47;;
32094;SDS011;18608;53.688;10.748;2022-07-23T02:08:14;2.90;;;2.33;;
32094;SDS011;18608;53.688;10.748;2022-07-23T02:10:41;2.80;;;2.57;;
32094;SDS011;18608;53.688;10.748;2022-07-23T02:13:06;4.50;;;2.43;;
32094;SDS011;18608;53.688;10.748;2022-07-23T02:15:32;3.67;;;2.30;;
32094;SDS011;18608;53.688;10.748;2022-07-23T02:17:58;5.40;;;2.57;;
32094;SDS011;18608;53.688;10.748;2022-07-23T02:20:24;2.60;;;2.17;;
32094;SDS011;18608;53.688;10.748;2022-07-23T02:22:50;4.60;;;1.97;;
32094;SDS011;18608;53.688;10.748;2022-07-23T02:25:16;8.50;;;2.73;;
32094;SDS011;18608;53.688;10.748;2022-07-23T02:27:41;6.57;;;2.33;;
32094;SDS011;18608;53.688;10.748;2022-07-23T02:30:07;2.60;;;2.00;;
32094;SDS011;18608;53.688;10.748;2022-07-23T02:32:33;3.30;;;2.43;;
32094;SDS011;18608;53.688;10.748;2022-07-23T02:34:59;3.67;;;2.40;;
32094;SDS011;18608;53.688;10.748;2022-07-23T02:37:25;2.47;;;2.27;;
32094;SDS011;18608;53.688;10.748;2022-07-23T02:39:51;11.33;;;2.40;;
32094;SDS011;18608;53.688;10.748;2022-07-23T02:42:16;2.90;;;1.83;;
32094;SDS011;18608;53.688;10.748;2022-07-23T02:44:42;7.00;;;2.23;;
32094;SDS011;18608;53.688;10.748;2022-07-23T02:47:08;3.30;;;2.33;;
32094;SDS011;18608;53.688;10.748;2022-07-23T02:49:33;3.73;;;2.57;;
32094;SDS011;18608;53.688;10.748;2022-07-23T02:51:59;7.53;;;2.30;;
32094;SDS011;18608;53.688;10.748;2022-07-23T02:54:25;6.17;;;2.47;;
32094;SDS011;18608;53.688;10.748;2022-07-23T02:56:51;2.43;;;2.20;;
32094;SDS011;18608;53.688;10.748;2022-07-23T02:59:16;2.93;;;2.20;;
32094;SDS011;18608;53.688;10.748;2022-07-23T03:01:43;3.83;;;2.03;;
32094;SDS011;18608;53.688;10.748;2022-07-23T03:04:09;4.90;;;2.43;;
32094;SDS011;18608;53.688;10.748;2022-07-23T03:06:35;7.63;;;2.60;;
32094;SDS011;18608;53.688;10.748;2022-07-23T03:09:01;1.80;;;1.70;;
32094;SDS011;18608;53.688;10.748;2022-07-23T03:11:27;7.50;;;2.03;;
32094;SDS011;18608;53.688;10.748;2022-07-23T03:13:52;6.43;;;2.10;;
32094;SDS011;18608;53.688;10.748;2022-07-23T03:16:18;3.10;;;2.40;;
32094;SDS011;18608;53.688;10.748;2022-07-23T03:18:44;2.90;;;1.93;;
32094;SDS011;18608;53.688;10.748;2022-07-23T03:21:09;5.10;;;1.97;;
32094;SDS011;18608;53.688;10.748;2022-07-23T03:23:35;4.57;;;2.57;;
32094;SDS011;18608;53.688;10.748;2022-07-23T03:26:00;3.73;;;2.30;;
32094;SDS011;18608;53.688;10.748;2022-07-23T03:28:26;3.33;;;2.23;;
32094;SDS011;18608;53.688;10.748;2022-07-23T03:30:52;3.63;;;2.53;;
32094;SDS011;18608;53.688;10.748;2022-07-23T03:33:18;4.93;;;2.00;;
32094;SDS011;18608;53.688;10.748;2022-07-23T03:35:44;8.53;;;2.30;;
32094;SDS011;18608;53.688;10.748;2022-07-23T03:38:10;2.20;;;2.00;;
32094;SDS011;18608;53.688;10.748;2022-07-23T03:40:37;3.93;;;1.90;;
32094;SDS011;18608;53.688;10.748;2022-07-23T03:43:03;3.17;;;2.10;;
32094;SDS011;18608;53.688;10.748;2022-07-23T03:45:28;5.70;;;2.23;;
32094;SDS011;18608;53.688;10.748;2022-07-23T03:47:55;6.43;;;2.40;;
32094;SDS011;18608;53.688;10.748;2022-07-23T03:50:20;3.40;;;1.93;;
32094;SDS011;18608;53.688;10.748;2022-07-23T03:52:46;5.20;;;2.33;;
32094;SDS011;18608;53.688;10.748;2022-07-23T03:55:12;3.80;;;2.23;;
32094;SDS011;18608;53.688;10.748;2022-07-23T03:57:37;5.07;;;2.70;;
32094;SDS011;18608;53.688;10.748;2022-07-23T04:00:03;11.03;;;2.00;;
32094;SDS011;18608;53.688;10.748;2022-07-23T04:02:32;7.10;;;2.87;;
32094;SDS011;18608;53.688;10.748;2022-07-23T04:04:58;2.60;;;1.97;;
32094;SDS011;18608;53.688;10.748;2022-07-23T04:07:25;1.97;;;1.87;;
32094;SDS011;18608;53.688;10.748;2022-07-23T04:09:50;3.23;;;2.57;;
32094;SDS011;18608;53.688;10.748;2022-07-23T04:12:16;3.83;;;1.90;;
32094;SDS011;18608;53.688;10.748;2022-07-23T04:14:41;4.10;;;2.40;;
32094;SDS011;18608;53.688;10.748;2022-07-23T04:17:07;3.27;;;1.83;;
32094;SDS011;18608;53.688;10.748;2022-07-23T04:19:33;2.13;;;2.03;;
32094;SDS011;18608;53.688;10.748;2022-07-23T04:22:00;2.93;;;2.47;;
32094;SDS011;18608;53.688;10.748;2022-07-23T04:24:26;4.67;;;1.97;;
32094;SDS011;18608;53.688;10.748;2022-07-23T04:26:51;8.00;;;2.70;;
32094;SDS011;18608;53.688;10.748;2022-07-23T04:29:17;1.87;;;1.77;;
32094;SDS011;18608;53.688;10.748;2022-07-23T04:31:43;2.40;;;2.27;;
32094;SDS011;18608;53.688;10.748;2022-07-23T04:34:08;3.30;;;2.00;;
32094;SDS011;18608;53.688;10.748;2022-07-23T04:36:34;3.43;;;1.77;;
32094;SDS011;18608;53.688;10.748;2022-07-23T04:39:00;6.00;;;2.07;;
32094;SDS011;18608;53.688;10.748;2022-07-23T04:41:25;2.40;;;2.20;;
32094;SDS011;18608;53.688;10.748;2022-07-23T04:43:51;4.97;;;2.10;;
32094;SDS011;18608;53.688;10.748;2022-07-23T04:46:17;2.60;;;2.13;;
32094;SDS011;18608;53.688;10.748;2022-07-23T04:48:43;5.53;;;2.27;;
32094;SDS011;18608;53.688;10.748;2022-07-23T04:51:08;2.50;;;1.87;;
32094;SDS011;18608;53.688;10.748;2022-07-23T04:53:34;4.23;;;2.60;;
32094;SDS011;18608;53.688;10.748;2022-07-23T04:56:03;2.10;;;1.90;;
32094;SDS011;18608;53.688;10.748;2022-07-23T04:58:29;2.30;;;1.90;;
32094;SDS011;18608;53.688;10.748;2022-07-23T05:00:54;3.83;;;2.10;;
32094;SDS011;18608;53.688;10.748;2022-07-23T05:03:22;4.97;;;2.60;;
32094;SDS011;18608;53.688;10.748;2022-07-23T05:05:48;4.83;;;1.77;;
32094;SDS011;18608;53.688;10.748;2022-07-23T05:08:14;3.00;;;2.23;;
32094;SDS011;18608;53.688;10.748;2022-07-23T05:10:39;1.93;;;1.83;;
32094;SDS011;18608;53.688;10.748;2022-07-23T05:13:05;5.47;;;1.97;;
32094;SDS011;18608;53.688;10.748;2022-07-23T05:15:31;3.97;;;2.20;;
32094;SDS011;18608;53.688;10.748;2022-07-23T05:17:56;5.37;;;3.60;;
32094;SDS011;18608;53.688;10.748;2022-07-23T05:20:22;5.27;;;1.47;;
32094;SDS011;18608;53.688;10.748;2022-07-23T05:22:47;4.83;;;1.50;;
32094;SDS011;18608;53.688;10.748;2022-07-23T05:25:13;5.07;;;1.57;;
32094;SDS011;18608;53.688;10.748;2022-07-23T05:27:39;2.80;;;2.07;;
32094;SDS011;18608;53.688;10.748;2022-07-23T05:30:04;5.53;;;1.93;;
32094;SDS011;18608;53.688;10.748;2022-07-23T05:32:31;3.20;;;1.90;;
32094;SDS011;18608;53.688;10.748;2022-07-23T05:34:57;3.80;;;2.27;;
32094;SDS011;18608;53.688;10.748;2022-07-23T05:37:22;7.80;;;2.53;;
32094;SDS011;18608;53.688;10.748;2022-07-23T05:39:48;3.13;;;2.00;;
32094;SDS011;18608;53.688;10.748;2022-07-23T05:42:14;4.23;;;2.20;;
32094;SDS011;18608;53.688;10.748;2022-07-23T05:44:39;2.87;;;1.77;;
32094;SDS011;18608;53.688;10.748;2022-07-23T05:47:05;2.80;;;1.53;;
32094;SDS011;18608;53.688;10.748;2022-07-23T05:49:30;3.37;;;2.00;;
32094;SDS011;18608;53.688;10.748;2022-07-23T05:51:56;10.80;;;3.13;;
32094;SDS011;18608;53.688;10.748;2022-07-23T05:54:21;2.33;;;2.13;;
32094;SDS011;18608;53.688;10.748;2022-07-23T05:56:47;5.00;;;2.10;;
32094;SDS011;18608;53.688;10.748;2022-07-23T05:59:13;8.27;;;2.23;;
32094;SDS011;18608;53.688;10.748;2022-07-23T06:01:39;5.07;;;2.37;;
32094;SDS011;18608;53.688;10.748;2022-07-23T06:04:05;2.50;;;2.20;;
32094;SDS011;18608;53.688;10.748;2022-07-23T06:06:31;5.63;;;1.93;;
32094;SDS011;18608;53.688;10.748;2022-07-23T06:08:56;2.37;;;2.27;;
32094;SDS011;18608;53.688;10.748;2022-07-23T06:11:22;8.60;;;2.40;;
32094;SDS011;18608;53.688;10.748;2022-07-23T06:13:47;2.20;;;2.00;;
32094;SDS011;18608;53.688;10.748;2022-07-23T06:16:13;9.73;;;2.90;;
32094;SDS011;18608;53.688;10.748;2022-07-23T06:18:38;3.13;;;2.17;;
32094;SDS011;18608;53.688;10.748;2022-07-23T06:21:04;3.83;;;2.63;;
32094;SDS011;18608;53.688;10.748;2022-07-23T06:23:30;4.60;;;2.50;;
32094;SDS011;18608;53.688;10.748;2022-07-23T06:25:55;4.60;;;2.50;;
32094;SDS011;18608;53.688;10.748;2022-07-23T06:28:21;3.77;;;3.00;;
32094;SDS011;18608;53.688;10.748;2022-07-23T06:30:46;2.57;;;1.83;;
32094;SDS011;18608;53.688;10.748;2022-07-23T06:33:13;7.57;;;2.50;;
32094;SDS011;18608;53.688;10.748;2022-07-23T06:35:38;2.33;;;2.17;;
32094;SDS011;18608;53.688;10.748;2022-07-23T06:38:04;3.27;;;2.60;;
32094;SDS011;18608;53.688;10.748;2022-07-23T06:40:30;2.23;;;1.90;;
32094;SDS011;18608;53.688;10.748;2022-07-23T06:42:55;1.80;;;1.70;;
32094;SDS011;18608;53.688;10.748;2022-07-23T06:45:21;5.90;;;2.27;;
32094;SDS011;18608;53.688;10.748;2022-07-23T06:47:47;9.23;;;2.60;;
32094;SDS011;18608;53.688;10.748;2022-07-23T06:50:12;3.23;;;2.67;;
32094;SDS011;18608;53.688;10.748;2022-07-23T06:52:38;4.47;;;3.00;;
32094;SDS011;18608;53.688;10.748;2022-07-23T06:55:04;3.17;;;2.00;;
32094;SDS011;18608;53.688;10.748;2022-07-23T06:57:30;2.47;;;2.10;;
32094;SDS011;18608;53.688;10.748;2022-07-23T06:59:55;6.27;;;2.60;;
32094;SDS011;18608;53.688;10.748;2022-07-23T07:02:21;4.60;;;2.20;;
32094;SDS011;18608;53.688;10.748;2022-07-23T07:04:46;2.83;;;2.50;;
32094;SDS011;18608;53.688;10.748;2022-07-23T07:07:12;2.50;;;2.30;;
32094;SDS011;18608;53.688;10.748;2022-07-23T07:09:38;3.83;;;2.37;;
32094;SDS011;18608;53.688;10.748;2022-07-23T07:12:04;2.90;;;1.90;;
32094;SDS011;18608;53.688;10.748;2022-07-23T07:14:30;5.83;;;1.63;;
32094;SDS011;18608;53.688;10.748;2022-07-23T07:16:55;6.90;;;1.17;;
32094;SDS011;18608;53.688;10.748;2022-07-23T07:19:21;2.83;;;1.77;;
32094;SDS011;18608;53.688;10.748;2022-07-23T07:21:46;4.73;;;1.87;;
32094;SDS011;18608;53.688;10.748;2022-07-23T07:24:12;4.80;;;1.17;;
32094;SDS011;18608;53.688;10.748;2022-07-23T07:26:37;3.23;;;1.57;;
32094;SDS011;18608;53.688;10.748;2022-07-23T07:29:04;2.17;;;1.53;;
32094;SDS011;18608;53.688;10.748;2022-07-23T07:31:30;1.00;;;1.00;;
32094;SDS011;18608;53.688;10.748;2022-07-23T07:33:55;1.50;;;1.40;;
32094;SDS011;18608;53.688;10.748;2022-07-23T07:36:22;11.23;;;3.73;;
32094;SDS011;18608;53.688;10.748;2022-07-23T07:38:47;2.23;;;1.93;;
32094;SDS011;18608;53.688;10.748;2022-07-23T07:41:13;2.27;;;2.07;;
32094;SDS011;18608;53.688;10.748;2022-07-23T07:43:39;3.10;;;1.40;;
32094;SDS011;18608;53.688;10.748;2022-07-23T07:46:04;1.93;;;1.47;;
32094;SDS011;18608;53.688;10.748;2022-07-23T07:48:31;2.40;;;1.30;;
32094;SDS011;18608;53.688;10.748;2022-07-23T07:50:57;2.10;;;1.50;;
32094;SDS011;18608;53.688;10.748;2022-07-23T07:53:22;2.67;;;1.10;;
32094;SDS011;18608;53.688;10.748;2022-07-23T07:55:48;2.43;;;1.30;;
32094;SDS011;18608;53.688;10.748;2022-07-23T07:58:14;4.03;;;1.10;;
32094;SDS011;18608;53.688;10.748;2022-07-23T08:00:39;2.30;;;1.03;;
32094;SDS011;18608;53.688;10.748;2022-07-23T08:03:05;7.10;;;1.33;;
32094;SDS011;18608;53.688;10.748;2022-07-23T08:05:30;2.10;;;1.00;;
32094;SDS011;18608;53.688;10.748;2022-07-23T08:07:56;2.50;;;1.53;;
32094;SDS011;18608;53.688;10.748;2022-07-23T08:10:23;3.00;;;1.53;;
32094;SDS011;18608;53.688;10.748;2022-07-23T08:12:53;1.93;;;1.63;;
32094;SDS011;18608;53.688;10.748;2022-07-23T08:15:21;1.30;;;1.20;;
32094;SDS011;18608;53.688;10.748;2022-07-23T08:17:48;3.33;;;1.10;;
32094;SDS011;18608;53.688;10.748;2022-07-23T08:20:14;1.17;;;1.07;;
32094;SDS011;18608;53.688;10.748;2022-07-23T08:22:45;3.13;;;1.27;;
32094;SDS011;18608;53.688;10.748;2022-07-23T08:25:23;1.37;;;1.27;;
32094;SDS011;18608;53.688;10.748;2022-07-23T08:27:53;3.53;;;1.33;;
32094;SDS011;18608;53.688;10.748;2022-07-23T08:30:20;2.30;;;1.07;;
32094;SDS011;18608;53.688;10.748;2022-07-23T08:35:18;1.30;;;1.20;;
32094;SDS011;18608;53.688;10.748;2022-07-23T08:37:47;1.10;;;1.00;;
32094;SDS011;18608;53.688;10.748;2022-07-23T08:40:13;2.40;;;1.00;;
32094;SDS011;18608;53.688;10.748;2022-07-23T08:42:39;1.57;;;0.90;;
32094;SDS011;18608;53.688;10.748;2022-07-23T08:45:04;0.80;;;0.80;;
32094;SDS011;18608;53.688;10.748;2022-07-23T08:47:32;4.87;;;1.17;;
32094;SDS011;18608;53.688;10.748;2022-07-23T08:49:59;2.00;;;0.70;;
32094;SDS011;18608;53.688;10.748;2022-07-23T08:52:26;3.70;;;0.90;;
32094;SDS011;18608;53.688;10.748;2022-07-23T08:54:52;5.97;;;1.17;;
32094;SDS011;18608;53.688;10.748;2022-07-23T08:57:18;2.30;;;0.93;;
32094;SDS011;18608;53.688;10.748;2022-07-23T08:59:44;0.90;;;0.90;;
32094;SDS011;18608;53.688;10.748;2022-07-23T09:02:09;2.63;;;1.23;;
32094;SDS011;18608;53.688;10.748;2022-07-23T09:04:35;1.43;;;1.07;;
32094;SDS011;18608;53.688;10.748;2022-07-23T09:07:01;4.87;;;1.30;;
32094;SDS011;18608;53.688;10.748;2022-07-23T09:09:27;1.23;;;1.13;;
32094;SDS011;18608;53.688;10.748;2022-07-23T09:12:08;4.30;;;1.63;;
32094;SDS011;18608;53.688;10.748;2022-07-23T09:14:45;2.00;;;0.70;;
32094;SDS011;18608;53.688;10.748;2022-07-23T09:17:21;2.13;;;1.00;;
32094;SDS011;18608;53.688;10.748;2022-07-23T09:19:46;3.20;;;0.80;;
32094;SDS011;18608;53.688;10.748;2022-07-23T09:30:12;1.50;;;0.80;;
32094;SDS011;18608;53.688;10.748;2022-07-23T09:32:38;1.20;;;0.90;;
32094;SDS011;18608;53.688;10.748;2022-07-23T09:35:04;1.40;;;1.30;;
32094;SDS011;18608;53.688;10.748;2022-07-23T09:37:30;3.10;;;0.90;;
32094;SDS011;18608;53.688;10.748;2022-07-23T09:40:03;1.93;;;1.00;;
32094;SDS011;18608;53.688;10.748;2022-07-23T09:42:38;4.10;;;0.97;;
32094;SDS011;18608;53.688;10.748;2022-07-23T09:45:04;2.60;;;1.00;;
32094;SDS011;18608;53.688;10.748;2022-07-23T09:47:36;1.20;;;1.10;;
32094;SDS011;18608;53.688;10.748;2022-07-23T09:52:42;6.20;;;1.10;;
32094;SDS011;18608;53.688;10.748;2022-07-23T09:55:08;2.40;;;0.97;;
32094;SDS011;18608;53.688;10.748;2022-07-23T09:57:34;2.47;;;1.27;;
32094;SDS011;18608;53.688;10.748;2022-07-23T10:00:00;1.83;;;0.93;;
32094;SDS011;18608;53.688;10.748;2022-07-23T10:02:29;2.20;;;1.53;;
32094;SDS011;18608;53.688;10.748;2022-07-23T10:04:57;2.67;;;0.90;;
32094;SDS011;18608;53.688;10.748;2022-07-23T10:07:24;2.40;;;1.10;;
32094;SDS011;18608;53.688;10.748;2022-07-23T10:09:52;2.20;;;1.00;;
32094;SDS011;18608;53.688;10.748;2022-07-23T10:12:18;1.27;;;1.17;;
32094;SDS011;18608;53.688;10.748;2022-07-23T10:15:03;2.60;;;1.10;;
32094;SDS011;18608;53.688;10.748;2022-07-23T10:17:31;4.03;;;1.00;;
32094;SDS011;18608;53.688;10.748;2022-07-23T10:19:57;1.00;;;1.00;;
32094;SDS011;18608;53.688;10.748;2022-07-23T10:22:23;3.50;;;1.20;;
32094;SDS011;18608;53.688;10.748;2022-07-23T10:24:53;1.53;;;1.30;;
32094;SDS011;18608;53.688;10.748;2022-07-23T10:30:09;1.33;;;1.20;;
32094;SDS011;18608;53.688;10.748;2022-07-23T10:35:39;5.60;;;1.37;;
32094;SDS011;18608;53.688;10.748;2022-07-23T10:38:42;0.93;;;0.90;;
32094;SDS011;18608;53.688;10.748;2022-07-23T10:41:34;4.87;;;1.10;;
32094;SDS011;18608;53.688;10.748;2022-07-23T10:44:11;1.00;;;0.80;;
32094;SDS011;18608;53.688;10.748;2022-07-23T10:47:01;1.60;;;1.13;;
32094;SDS011;18608;53.688;10.748;2022-07-23T10:49:37;0.80;;;0.80;;
32094;SDS011;18608;53.688;10.748;2022-07-23T10:57:46;4.27;;;1.27;;
32094;SDS011;18608;53.688;10.748;2022-07-23T11:00:13;1.80;;;0.90;;
32094;SDS011;18608;53.688;10.748;2022-07-23T11:02:43;2.90;;;1.40;;
32094;SDS011;18608;53.688;10.748;2022-07-23T11:05:12;1.23;;;0.70;;
32094;SDS011;18608;53.688;10.748;2022-07-23T11:10:35;1.23;;;1.13;;
32094;SDS011;18608;53.688;10.748;2022-07-23T11:13:25;1.00;;;0.90;;
32094;SDS011;18608;53.688;10.748;2022-07-23T11:31:53;0.90;;;0.90;;
32094;SDS011;18608;53.688;10.748;2022-07-23T11:37:04;0.80;;;0.70;;
32094;SDS011;18608;53.688;10.748;2022-07-23T11:39:31;1.00;;;0.90;;
32094;SDS011;18608;53.688;10.748;2022-07-23T11:41:58;2.30;;;1.10;;
32094;SDS011;18608;53.688;10.748;2022-07-23T11:44:27;6.43;;;0.90;;
32094;SDS011;18608;53.688;10.748;2022-07-23T11:46:58;1.80;;;1.03;;
32094;SDS011;18608;53.688;10.748;2022-07-23T11:49:25;3.70;;;1.00;;
32094;SDS011;18608;53.688;10.748;2022-07-23T11:54:32;1.27;;;1.17;;
32094;SDS011;18608;53.688;10.748;2022-07-23T11:56:59;1.40;;;1.30;;
32094;SDS011;18608;53.688;10.748;2022-07-23T11:59:26;1.37;;;1.00;;
32094;SDS011;18608;53.688;10.748;2022-07-23T12:01:57;5.70;;;1.00;;
32094;SDS011;18608;53.688;10.748;2022-07-23T12:04:24;3.43;;;1.27;;
32094;SDS011;18608;53.688;10.748;2022-07-23T12:07:01;1.37;;;0.90;;
32094;SDS011;18608;53.688;10.748;2022-07-23T12:09:27;1.10;;;0.90;;
32094;SDS011;18608;53.688;10.748;2022-07-23T12:11:59;2.50;;;0.93;;
32094;SDS011;18608;53.688;10.748;2022-07-23T12:14:25;1.27;;;0.80;;
32094;SDS011;18608;53.688;10.748;2022-07-23T12:17:10;4.30;;;0.70;;
32094;SDS011;18608;53.688;10.748;2022-07-23T12:19:35;0.93;;;0.70;;
32094;SDS011;18608;53.688;10.748;2022-07-23T12:22:01;0.80;;;0.70;;
32094;SDS011;18608;53.688;10.748;2022-07-23T12:24:27;1.00;;;0.70;;
32094;SDS011;18608;53.688;10.748;2022-07-23T12:27:12;2.73;;;1.00;;
32094;SDS011;18608;53.688;10.748;2022-07-23T12:29:39;1.23;;;1.10;;
32094;SDS011;18608;53.688;10.748;2022-07-23T12:32:17;2.30;;;0.80;;
32094;SDS011;18608;53.688;10.748;2022-07-23T12:34:44;2.33;;;0.77;;
32094;SDS011;18608;53.688;10.748;2022-07-23T12:37:29;0.80;;;0.80;;
32094;SDS011;18608;53.688;10.748;2022-07-23T12:39:57;3.13;;;0.93;;
32094;SDS011;18608;53.688;10.748;2022-07-23T12:42:23;1.20;;;1.10;;
32094;SDS011;18608;53.688;10.748;2022-07-23T12:45:05;1.27;;;0.70;;
32094;SDS011;18608;53.688;10.748;2022-07-23T12:55:38;1.37;;;0.80;;
32094;SDS011;18608;53.688;10.748;2022-07-23T12:58:11;0.70;;;0.70;;
32094;SDS011;18608;53.688;10.748;2022-07-23T13:03:31;3.63;;;1.20;;
32094;SDS011;18608;53.688;10.748;2022-07-23T13:05:58;1.37;;;0.80;;
32094;SDS011;18608;53.688;10.748;2022-07-23T13:08:25;1.43;;;0.93;;
32094;SDS011;18608;53.688;10.748;2022-07-23T13:10:52;0.60;;;0.60;;
32094;SDS011;18608;53.688;10.748;2022-07-23T13:13:26;0.60;;;0.60;;
32094;SDS011;18608;53.688;10.748;2022-07-23T13:15:53;0.70;;;0.70;;
32094;SDS011;18608;53.688;10.748;2022-07-23T13:18:20;1.00;;;0.83;;
32094;SDS011;18608;53.688;10.748;2022-07-23T13:20:46;1.90;;;0.83;;
32094;SDS011;18608;53.688;10.748;2022-07-23T13:23:13;1.63;;;0.70;;
32094;SDS011;18608;53.688;10.748;2022-07-23T13:25:39;6.43;;;1.50;;
32094;SDS011;18608;53.688;10.748;2022-07-23T13:28:05;6.50;;;0.90;;
32094;SDS011;18608;53.688;10.748;2022-07-23T13:30:30;1.57;;;0.90;;
32094;SDS011;18608;53.688;10.748;2022-07-23T13:32:56;0.83;;;0.80;;
32094;SDS011;18608;53.688;10.748;2022-07-23T13:35:22;2.60;;;0.70;;
32094;SDS011;18608;53.688;10.748;2022-07-23T13:37:48;1.90;;;0.70;;
32094;SDS011;18608;53.688;10.748;2022-07-23T13:40:14;1.07;;;1.00;;
32094;SDS011;18608;53.688;10.748;2022-07-23T13:42:39;1.00;;;0.90;;
32094;SDS011;18608;53.688;10.748;2022-07-23T13:45:05;1.00;;;0.90;;
32094;SDS011;18608;53.688;10.748;2022-07-23T13:47:32;1.33;;;1.10;;
32094;SDS011;18608;53.688;10.748;2022-07-23T13:49:58;2.17;;;1.00;;
32094;SDS011;18608;53.688;10.748;2022-07-23T13:52:24;5.23;;;1.07;;
32094;SDS011;18608;53.688;10.748;2022-07-23T13:54:50;1.17;;;0.93;;
32094;SDS011;18608;53.688;10.748;2022-07-23T13:57:16;0.93;;;0.93;;
32094;SDS011;18608;53.688;10.748;2022-07-23T13:59:42;1.73;;;1.10;;
32094;SDS011;18608;53.688;10.748;2022-07-23T14:02:08;1.00;;;0.90;;
32094;SDS011;18608;53.688;10.748;2022-07-23T14:04:34;1.50;;;1.30;;
32094;SDS011;18608;53.688;10.748;2022-07-23T14:07:00;1.80;;;1.67;;
32094;SDS011;18608;53.688;10.748;2022-07-23T14:09:26;1.03;;;0.93;;
32094;SDS011;18608;53.688;10.748;2022-07-23T14:11:52;1.23;;;1.13;;
32094;SDS011;18608;53.688;10.748;2022-07-23T14:14:18;0.80;;;0.80;;
32094;SDS011;18608;53.688;10.748;2022-07-23T14:16:44;0.80;;;0.70;;
32094;SDS011;18608;53.688;10.748;2022-07-23T14:19:10;1.10;;;0.80;;
32094;SDS011;18608;53.688;10.748;2022-07-23T14:21:36;0.70;;;0.60;;
32094;SDS011;18608;53.688;10.748;2022-07-23T14:24:02;0.60;;;0.57;;
32094;SDS011;18608;53.688;10.748;2022-07-23T14:26:28;1.83;;;0.70;;
32094;SDS011;18608;53.688;10.748;2022-07-23T14:28:54;1.90;;;0.60;;
32094;SDS011;18608;53.688;10.748;2022-07-23T14:31:20;1.30;;;0.67;;
32094;SDS011;18608;53.688;10.748;2022-07-23T14:33:45;0.60;;;0.60;;
32094;SDS011;18608;53.688;10.748;2022-07-23T14:36:11;2.57;;;0.70;;
32094;SDS011;18608;53.688;10.748;2022-07-23T14:38:36;0.93;;;0.90;;
32094;SDS011;18608;53.688;10.748;2022-07-23T14:41:02;4.10;;;0.70;;
32094;SDS011;18608;53.688;10.748;2022-07-23T14:43:31;0.90;;;0.90;;
32094;SDS011;18608;53.688;10.748;2022-07-23T14:45:57;0.90;;;0.90;;
32094;SDS011;18608;53.688;10.748;2022-07-23T14:48:23;1.07;;;0.80;;
32094;SDS011;18608;53.688;10.748;2022-07-23T14:50:49;0.90;;;0.90;;
32094;SDS011;18608;53.688;10.748;2022-07-23T14:53:14;1.63;;;1.00;;
32094;SDS011;18608;53.688;10.748;2022-07-23T14:55:40;2.73;;;0.80;;
32094;SDS011;18608;53.688;10.748;2022-07-23T14:58:05;3.13;;;1.10;;
32094;SDS011;18608;53.688;10.748;2022-07-23T15:00:31;2.63;;;1.03;;
32094;SDS011;18608;53.688;10.748;2022-07-23T15:02:57;1.13;;;1.03;;
32094;SDS011;18608;53.688;10.748;2022-07-23T15:05:22;0.80;;;0.80;;
32094;SDS011;18608;53.688;10.748;2022-07-23T15:07:48;1.50;;;0.80;;
32094;SDS011;18608;53.688;10.748;2022-07-23T15:10:14;2.27;;;1.27;;
32094;SDS011;18608;53.688;10.748;2022-07-23T15:12:40;1.80;;;1.33;;
32094;SDS011;18608;53.688;10.748;2022-07-23T15:15:05;1.23;;;0.73;;
32094;SDS011;18608;53.688;10.748;2022-07-23T15:17:32;2.30;;;0.80;;
32094;SDS011;18608;53.688;10.748;2022-07-23T15:19:58;2.10;;;1.20;;
32094;SDS011;18608;53.688;10.748;2022-07-23T15:22:23;1.73;;;1.53;;
32094;SDS011;18608;53.688;10.748;2022-07-23T15:24:49;3.70;;;0.90;;
32094;SDS011;18608;53.688;10.748;2022-07-23T15:27:14;0.70;;;0.70;;
32094;SDS011;18608;53.688;10.748;2022-07-23T15:29:42;2.30;;;0.80;;
32094;SDS011;18608;53.688;10.748;2022-07-23T15:32:11;0.83;;;0.83;;